Time;durP1;ratioP1;P1;durP2;ratioP2;P2;SDS_P1;SDS_P2;PMS_P1;PMS_P2;Temp;Humidity;BMP_temperature;BMP_pressure;BME280_temperature;BME280_humidity;BME280_pressure;Samples;Min_cycle;Max_cycle;Signal;HPM_P1;HPM_P2
2023/07/11 00:00:17;;;;;;;8.07;7.50;;;23.20;99.90;;;;;;4970976;28;20517;-83
2023/07/11 00:02:46;;;;;;;7.10;6.60;;;23.20;99.90;;;;;;4972379;28;20474;-76
2023/07/11 00:05:15;;;;;;;6.87;6.33;;;23.20;99.90;;;;;;4971522;28;20466;-77
2023/07/11 00:07:43;;;;;;;7.30;6.70;;;23.20;99.90;;;;;;4971010;28;20471;-84
2023/07/11 00:10:13;;;;;;;6.87;6.40;;;23.20;99.90;;;;;;4966646;28;20477;-84
2023/07/11 00:12:43;;;;;;;6.37;5.87;;;23.20;99.90;;;;;;4972667;28;20490;-77
2023/07/11 00:15:12;;;;;;;7.17;6.57;;;23.20;99.90;;;;;;4970115;28;20880;-77
2023/07/11 00:17:40;;;;;;;7.43;6.90;;;23.20;99.90;;;;;;4972621;28;20475;-77
2023/07/11 00:20:09;;;;;;;8.03;7.33;;;23.10;99.90;;;;;;4972123;28;20602;-85
2023/07/11 00:25:21;;;;;;;8.53;7.80;;;23.10;99.90;;;;;;4971261;28;20493;-80
2023/07/11 00:27:48;;;;;;;8.47;7.77;;;23.10;99.90;;;;;;4969866;28;20805;-84
2023/07/11 00:30:15;;;;;;;8.70;8.00;;;23.10;99.90;;;;;;4971431;28;20497;-78
2023/07/11 00:32:42;;;;;;;7.70;7.07;;;23.10;99.90;;;;;;4974399;28;20513;-77
2023/07/11 00:35:09;;;;;;;7.80;7.17;;;23.00;99.90;;;;;;4969937;28;20574;-83
2023/07/11 00:37:38;;;;;;;8.63;7.93;;;23.00;99.90;;;;;;4969624;28;20467;-76
2023/07/11 00:40:05;;;;;;;7.60;7.00;;;23.00;99.90;;;;;;4972766;28;20875;-83
2023/07/11 00:42:32;;;;;;;8.53;7.80;;;22.90;99.90;;;;;;4971149;28;20506;-83
2023/07/11 00:45:03;;;;;;;7.77;6.97;;;22.90;99.90;;;;;;4972290;28;20490;-83
2023/07/11 00:47:31;;;;;;;7.30;6.70;;;22.90;99.90;;;;;;4972274;28;20790;-83
2023/07/11 00:50:02;;;;;;;8.27;7.63;;;22.90;99.90;;;;;;4972345;28;20670;-77
2023/07/11 00:52:31;;;;;;;7.97;7.20;;;22.90;99.90;;;;;;4973396;28;20871;-76
2023/07/11 00:55:04;;;;;;;7.53;6.93;;;22.90;99.90;;;;;;4972011;28;20483;-83
2023/07/11 00:57:34;;;;;;;8.03;7.33;;;22.90;99.90;;;;;;4971983;28;20500;-77
2023/07/11 01:00:04;;;;;;;7.53;6.93;;;22.80;99.90;;;;;;4971425;28;20498;-77
2023/07/11 01:02:33;;;;;;;8.70;7.90;;;22.90;99.90;;;;;;4970984;28;20502;-77
2023/07/11 01:05:01;;;;;;;7.03;6.43;;;22.80;99.90;;;;;;4973077;28;20481;-84
2023/07/11 01:07:31;;;;;;;11.23;10.03;;;22.80;99.90;;;;;;4972604;28;20477;-78
2023/07/11 01:10:00;;;;;;;10.07;9.07;;;22.80;99.90;;;;;;4972021;28;20487;-84
2023/07/11 01:12:28;;;;;;;13.00;10.43;;;22.80;99.90;;;;;;4971616;28;20603;-77
2023/07/11 01:14:54;;;;;;;11.20;10.13;;;22.80;99.90;;;;;;4971317;28;20478;-84
2023/07/11 01:17:28;;;;;;;9.97;9.07;;;22.70;99.90;;;;;;4970528;28;20467;-83
2023/07/11 01:19:55;;;;;;;11.63;10.60;;;22.70;99.90;;;;;;4972221;28;20513;-76
2023/07/11 01:22:25;;;;;;;11.50;10.50;;;22.70;99.90;;;;;;4973902;28;20554;-82
2023/07/11 01:24:53;;;;;;;10.30;9.30;;;22.70;99.90;;;;;;4974146;28;20503;-82
2023/07/11 01:27:20;;;;;;;9.17;8.37;;;22.70;99.90;;;;;;4973352;28;20482;-77
2023/07/11 01:29:48;;;;;;;8.80;8.00;;;22.60;99.90;;;;;;4971642;28;20466;-83
2023/07/11 01:32:15;;;;;;;9.30;8.50;;;22.60;99.90;;;;;;4972925;28;20569;-83
2023/07/11 01:34:42;;;;;;;9.60;8.70;;;22.60;99.90;;;;;;4976546;28;20501;-77
2023/07/11 01:37:11;;;;;;;8.60;7.80;;;22.60;99.90;;;;;;4977109;28;20474;-78
2023/07/11 01:39:40;;;;;;;8.83;8.23;;;22.60;99.90;;;;;;4976601;28;20558;-83
2023/07/11 01:42:07;;;;;;;9.67;8.67;;;22.60;99.90;;;;;;4977274;28;20486;-83
2023/07/11 01:44:34;;;;;;;8.53;7.07;;;22.50;99.90;;;;;;4976370;28;20491;-84
2023/07/11 01:47:02;;;;;;;8.40;7.37;;;22.50;99.90;;;;;;4978126;28;20470;-77
2023/07/11 01:49:30;;;;;;;8.97;8.03;;;22.50;99.90;;;;;;4970231;28;20967;-83
2023/07/11 01:52:04;;;;;;;7.97;7.37;;;22.50;99.90;;;;;;4977582;28;20553;-83
2023/07/11 01:54:31;;;;;;;7.50;6.90;;;22.40;99.90;;;;;;4976027;28;20541;-83
2023/07/11 01:57:01;;;;;;;7.73;7.07;;;22.40;99.90;;;;;;4977728;28;20486;-83
2023/07/11 01:59:28;;;;;;;7.53;6.93;;;22.40;99.90;;;;;;4976458;28;20475;-76
2023/07/11 02:01:55;;;;;;;9.03;7.27;;;22.40;99.90;;;;;;4977789;28;20473;-84
2023/07/11 02:04:23;;;;;;;7.80;7.20;;;22.40;99.90;;;;;;4971645;28;21024;-83
2023/07/11 02:06:53;;;;;;;7.80;7.20;;;22.40;99.90;;;;;;4966427;28;20537;-83
2023/07/11 02:09:22;;;;;;;6.93;6.07;;;22.40;99.90;;;;;;4976955;28;20558;-77
2023/07/11 02:11:49;;;;;;;7.10;6.60;;;22.30;99.90;;;;;;4977053;28;20478;-83
2023/07/11 02:14:19;;;;;;;7.77;6.97;;;22.30;99.90;;;;;;4978100;28;20498;-83
2023/07/11 02:16:46;;;;;;;7.63;7.03;;;22.30;99.90;;;;;;4976195;28;20679;-82
2023/07/11 02:19:15;;;;;;;7.73;7.13;;;22.30;99.90;;;;;;4978012;28;20530;-84
2023/07/11 02:21:42;;;;;;;7.30;6.70;;;22.30;99.90;;;;;;4975396;28;20582;-75
2023/07/11 02:24:11;;;;;;;8.33;7.53;;;22.20;99.90;;;;;;4976890;28;20474;-76
2023/07/11 02:26:38;;;;;;;7.67;7.07;;;22.20;99.90;;;;;;4960164;28;20490;-75
2023/07/11 02:29:06;;;;;;;7.67;7.00;;;22.20;99.90;;;;;;4973106;28;20479;-83
2023/07/11 02:31:36;;;;;;;8.30;7.53;;;22.20;99.90;;;;;;4980573;28;20470;-82
2023/07/11 02:34:04;;;;;;;8.63;7.70;;;22.20;99.90;;;;;;4975473;28;20555;-83
2023/07/11 02:36:31;;;;;;;8.00;7.33;;;22.10;99.90;;;;;;4977729;28;20463;-77
2023/07/11 02:38:58;;;;;;;7.43;6.73;;;22.10;99.90;;;;;;4981188;28;20494;-77
2023/07/11 02:41:25;;;;;;;7.03;6.43;;;22.10;99.90;;;;;;4981529;28;20478;-76
2023/07/11 02:43:52;;;;;;;8.80;7.90;;;22.10;99.90;;;;;;4978311;28;20467;-77
2023/07/11 02:46:20;;;;;;;8.40;7.47;;;22.10;99.90;;;;;;4974332;28;20491;-77
2023/07/11 02:48:49;;;;;;;7.40;6.70;;;22.00;99.90;;;;;;4974768;28;20468;-82
2023/07/11 02:51:16;;;;;;;8.83;8.07;;;22.00;99.90;;;;;;4974650;28;20478;-82
2023/07/11 02:53:43;;;;;;;8.40;7.60;;;22.00;99.90;;;;;;4973815;28;20890;-81
2023/07/11 02:56:10;;;;;;;10.70;9.70;;;22.00;99.90;;;;;;4973029;28;20551;-77
2023/07/11 02:58:37;;;;;;;9.20;8.40;;;21.90;99.90;;;;;;4973123;28;20470;-82
2023/07/11 03:01:05;;;;;;;10.40;9.57;;;21.90;99.90;;;;;;4974355;28;20546;-81
2023/07/11 03:03:32;;;;;;;9.53;8.63;;;21.90;99.90;;;;;;4974319;28;20506;-82
2023/07/11 03:06:00;;;;;;;8.50;7.90;;;21.90;99.90;;;;;;4957911;28;20500;-76
2023/07/11 03:08:30;;;;;;;7.57;6.97;;;21.90;99.90;;;;;;4975097;28;20561;-78
2023/07/11 03:10:58;;;;;;;8.30;7.60;;;21.90;99.90;;;;;;4973527;28;20455;-76
2023/07/11 03:13:25;;;;;;;10.00;9.07;;;21.90;99.90;;;;;;4975792;28;20977;-77
2023/07/11 03:15:52;;;;;;;9.30;8.40;;;21.90;99.90;;;;;;4974911;28;20478;-76
2023/07/11 03:18:19;;;;;;;7.87;7.27;;;21.90;99.90;;;;;;4975223;28;20558;-75
2023/07/11 03:20:46;;;;;;;6.73;6.20;;;21.90;99.90;;;;;;4975105;28;20585;-76
2023/07/11 03:23:18;;;;;;;7.10;6.40;;;21.90;99.90;;;;;;4975649;28;20541;-76
2023/07/11 03:25:45;;;;;;;8.20;7.40;;;21.90;99.90;;;;;;4974774;28;20514;-77
2023/07/11 03:28:12;;;;;;;7.80;7.07;;;21.90;99.90;;;;;;4974643;28;20491;-81
2023/07/11 03:30:39;;;;;;;9.37;8.13;;;21.80;99.90;;;;;;4974470;28;20819;-77
2023/07/11 03:33:06;;;;;;;7.17;6.57;;;21.80;99.90;;;;;;4973555;28;20470;-77
2023/07/11 03:35:34;;;;;;;8.27;7.57;;;21.80;99.90;;;;;;4974263;28;20976;-77
2023/07/11 03:38:01;;;;;;;8.90;8.20;;;21.80;99.90;;;;;;4974454;28;20486;-76
2023/07/11 03:40:29;;;;;;;8.47;7.73;;;21.80;99.90;;;;;;4974127;28;20552;-78
2023/07/11 03:42:57;;;;;;;8.40;7.63;;;21.80;99.90;;;;;;4973550;28;20475;-77
2023/07/11 03:45:24;;;;;;;8.17;7.60;;;21.80;99.90;;;;;;4974720;28;20475;-76
2023/07/11 03:47:51;;;;;;;7.83;7.17;;;21.80;99.90;;;;;;4974212;28;20477;-76
2023/07/11 03:50:17;;;;;;;8.27;7.60;;;21.90;99.90;;;;;;4974255;28;20551;-76
2023/07/11 03:52:44;;;;;;;7.07;6.40;;;21.90;99.90;;;;;;4974564;28;20881;-77
2023/07/11 03:55:11;;;;;;;7.00;6.50;;;21.90;99.90;;;;;;4974924;28;20475;-81
2023/07/11 03:57:40;;;;;;;7.67;7.07;;;21.90;99.90;;;;;;4975012;28;20804;-81
2023/07/11 04:00:08;;;;;;;7.17;6.47;;;21.90;99.90;;;;;;4974919;28;20543;-81
2023/07/11 04:02:39;;;;;;;7.50;6.90;;;22.00;99.90;;;;;;4964171;28;20526;-76
2023/07/11 04:05:07;;;;;;;8.27;7.57;;;22.00;99.90;;;;;;4967827;28;20921;-81
2023/07/11 04:07:34;;;;;;;7.10;6.50;;;22.00;99.90;;;;;;4975128;28;21027;-76
2023/07/11 04:10:01;;;;;;;7.57;6.87;;;22.00;99.90;;;;;;4974359;28;20537;-82
2023/07/11 04:12:28;;;;;;;7.57;6.87;;;22.10;99.90;;;;;;4974711;28;21035;-82
2023/07/11 04:14:56;;;;;;;8.03;7.33;;;22.10;99.90;;;;;;4974617;28;20925;-82
2023/07/11 04:17:23;;;;;;;6.57;5.97;;;22.10;99.90;;;;;;4975087;28;20499;-76
2023/07/11 04:19:51;;;;;;;6.93;6.43;;;22.20;99.90;;;;;;4974254;28;20864;-76
2023/07/11 04:22:18;;;;;;;6.10;5.53;;;22.20;99.90;;;;;;4975122;28;20475;-76
2023/07/11 04:24:45;;;;;;;5.60;5.20;;;22.20;99.90;;;;;;4973689;28;20554;-79
2023/07/11 04:27:12;;;;;;;7.83;7.23;;;22.20;99.90;;;;;;4974683;28;20856;-82
2023/07/11 04:29:39;;;;;;;5.77;5.37;;;22.30;99.90;;;;;;4974615;28;20517;-81
2023/07/11 04:32:08;;;;;;;5.67;5.17;;;22.30;99.90;;;;;;4973711;28;20470;-77
2023/07/11 04:34:35;;;;;;;5.60;5.10;;;22.40;99.90;;;;;;4974672;28;20479;-80
2023/07/11 04:37:03;;;;;;;6.53;6.00;;;22.40;99.90;;;;;;4974423;28;20494;-81
2023/07/11 04:39:30;;;;;;;5.33;4.93;;;22.40;99.90;;;;;;4974296;28;20972;-76
2023/07/11 04:41:57;;;;;;;5.70;5.20;;;22.50;99.90;;;;;;4973791;28;20554;-76
2023/07/11 04:44:23;;;;;;;6.13;5.63;;;22.50;99.90;;;;;;4974466;28;20496;-81
2023/07/11 04:46:50;;;;;;;5.50;5.00;;;22.50;99.90;;;;;;4973994;28;20553;-76
2023/07/11 04:49:19;;;;;;;5.57;5.07;;;22.60;99.90;;;;;;4974429;28;20474;-75
2023/07/11 04:51:46;;;;;;;5.23;4.83;;;22.60;99.90;;;;;;4974355;28;20505;-76
2023/07/11 04:54:13;;;;;;;4.20;3.90;;;22.70;99.90;;;;;;4974543;28;20554;-76
2023/07/11 04:56:40;;;;;;;5.33;4.37;;;22.70;99.90;;;;;;4974870;28;20482;-81
2023/07/11 04:59:07;;;;;;;4.03;3.63;;;22.70;99.90;;;;;;4974245;28;20845;-80
2023/07/11 05:01:35;;;;;;;4.10;3.23;;;22.70;99.90;;;;;;4974884;28;20845;-76
2023/07/11 05:04:02;;;;;;;5.00;3.30;;;22.80;99.90;;;;;;4973808;28;20551;-75
2023/07/11 05:06:31;;;;;;;4.20;3.10;;;22.90;99.90;;;;;;4974866;28;20481;-81
2023/07/11 05:08:59;;;;;;;3.43;3.13;;;22.90;99.90;;;;;;4976568;28;20485;-81
2023/07/11 05:11:26;;;;;;;5.50;3.47;;;22.90;99.90;;;;;;4978481;28;20477;-82
2023/07/11 05:13:53;;;;;;;4.27;3.80;;;23.00;99.90;;;;;;4976958;28;20514;-75
2023/07/11 05:16:24;;;;;;;4.03;3.73;;;23.00;99.90;;;;;;4978115;28;20854;-75
2023/07/11 05:18:51;;;;;;;5.27;4.03;;;23.00;99.90;;;;;;4977474;28;20502;-81
2023/07/11 05:21:20;;;;;;;6.33;3.70;;;23.10;99.90;;;;;;4978094;28;20498;-82
2023/07/11 05:23:49;;;;;;;3.50;2.93;;;23.10;99.90;;;;;;4977957;28;20980;-76
2023/07/11 05:26:17;;;;;;;3.07;2.87;;;23.20;99.90;;;;;;4977465;28;20459;-81
2023/07/11 05:28:45;;;;;;;3.33;2.87;;;23.20;99.90;;;;;;4979922;28;20475;-76
2023/07/11 05:31:12;;;;;;;4.13;3.13;;;23.30;99.90;;;;;;4987030;28;20473;-81
2023/07/11 05:33:39;;;;;;;2.23;2.13;;;23.30;99.90;;;;;;4988162;28;20478;-81
2023/07/11 05:36:13;;;;;;;3.13;2.90;;;23.40;99.90;;;;;;4995846;28;20480;-76
2023/07/11 05:38:40;;;;;;;4.93;3.20;;;23.40;99.90;;;;;;4995287;28;20868;-76
2023/07/11 05:41:08;;;;;;;5.27;3.83;;;23.50;99.90;;;;;;4995284;28;20471;-75
2023/07/11 05:43:36;;;;;;;4.00;3.70;;;23.60;99.90;;;;;;4995157;28;20850;-74
2023/07/11 05:46:03;;;;;;;4.80;3.90;;;23.60;99.90;;;;;;4995216;28;20477;-75
2023/07/11 05:48:30;;;;;;;3.90;3.60;;;23.60;99.90;;;;;;4995838;28;20501;-81
2023/07/11 05:51:05;;;;;;;5.00;3.67;;;23.70;99.90;;;;;;4995511;28;20853;-81
2023/07/11 05:53:33;;;;;;;5.07;3.70;;;23.80;99.90;;;;;;4995488;28;20528;-76
2023/07/11 05:56:02;;;;;;;5.87;5.37;;;23.80;99.90;;;;;;4995748;28;20499;-80
2023/07/11 05:58:33;;;;;;;8.63;5.87;;;23.90;99.90;;;;;;4995212;28;20484;-79
2023/07/11 06:01:00;;;;;;;8.10;6.20;;;24.00;99.90;;;;;;4995524;28;20490;-80
2023/07/11 06:03:29;;;;;;;7.40;5.67;;;24.00;99.90;;;;;;4995406;28;20478;-79
2023/07/11 06:06:00;;;;;;;5.50;4.97;;;24.10;99.90;;;;;;4976262;28;20471;-81
2023/07/11 06:08:27;;;;;;;5.00;4.60;;;24.10;99.90;;;;;;4966037;28;20525;-80
2023/07/11 06:11:00;;;;;;;6.30;5.80;;;24.20;99.90;;;;;;4972147;28;20514;-79
2023/07/11 06:16:25;;;;;;;5.57;5.17;;;24.30;99.90;;;;;;4957357;28;20469;-75
2023/07/11 06:18:57;;;;;;;9.90;8.30;;;24.30;99.90;;;;;;4975540;28;20577;-80
2023/07/11 06:21:24;;;;;;;6.00;5.40;;;24.50;99.90;;;;;;4975495;28;20457;-81
2023/07/11 06:23:52;;;;;;;6.60;5.83;;;24.60;99.90;;;;;;4976471;28;20467;-75
2023/07/11 06:26:19;;;;;;;6.60;6.10;;;24.70;99.90;;;;;;4975234;28;20908;-81
2023/07/11 06:28:46;;;;;;;12.40;7.37;;;24.70;99.90;;;;;;4978309;28;20769;-82
2023/07/11 06:31:14;;;;;;;7.73;6.87;;;24.80;99.90;;;;;;4994683;28;20508;-75
2023/07/11 06:33:43;;;;;;;6.03;5.43;;;25.00;99.90;;;;;;4952810;28;1246817;-81
2023/07/11 06:36:11;;;;;;;5.27;4.77;;;25.10;99.90;;;;;;5015030;28;20471;-81
2023/07/11 06:38:41;;;;;;;4.83;4.33;;;25.20;99.90;;;;;;5015512;28;20502;-75
2023/07/11 06:41:10;;;;;;;9.63;4.50;;;25.30;99.90;;;;;;5014754;28;20559;-75
2023/07/11 06:43:38;;;;;;;4.60;4.23;;;25.50;99.90;;;;;;5015386;28;20507;-83
2023/07/11 06:46:05;;;;;;;6.70;4.00;;;25.60;99.90;;;;;;5006399;28;20470;-77
2023/07/11 06:48:33;;;;;;;6.63;3.80;;;25.70;99.90;;;;;;4995535;28;20527;-75
2023/07/11 06:51:03;;;;;;;4.80;4.37;;;25.80;99.90;;;;;;4985909;28;20473;-81
2023/07/11 06:53:32;;;;;;;4.13;3.73;;;26.00;99.90;;;;;;4994370;28;20522;-76
2023/07/11 06:56:00;;;;;;;4.50;4.00;;;26.10;99.90;;;;;;4995546;28;20474;-77
2023/07/11 06:58:27;;;;;;;3.70;3.20;;;26.30;99.90;;;;;;4994795;28;20495;-81
2023/07/11 07:00:56;;;;;;;3.83;3.53;;;26.40;99.90;;;;;;4995213;28;20466;-80
2023/07/11 07:03:24;;;;;;;3.93;3.40;;;26.50;99.90;;;;;;4995191;28;20986;-81
2023/07/11 07:05:54;;;;;;;4.00;3.00;;;26.60;99.90;;;;;;4995132;28;20512;-75
2023/07/11 07:08:24;;;;;;;4.20;3.40;;;26.70;99.90;;;;;;4994365;28;20949;-81
2023/07/11 07:10:53;;;;;;;3.73;3.40;;;26.80;99.90;;;;;;4994468;28;20483;-81
2023/07/11 07:13:23;;;;;;;4.90;3.47;;;26.90;99.90;;;;;;4995058;28;20500;-81
2023/07/11 07:15:51;;;;;;;3.70;3.17;;;27.00;99.90;;;;;;4995629;28;20539;-81
2023/07/11 07:18:22;;;;;;;2.80;2.60;;;27.10;99.60;;;;;;4992579;28;20983;-76
2023/07/11 07:20:51;;;;;;;4.97;4.40;;;27.10;98.70;;;;;;4994977;28;20485;-81
2023/07/11 07:23:18;;;;;;;6.47;5.87;;;27.20;98.50;;;;;;4994162;28;20518;-82
2023/07/11 07:25:53;;;;;;;5.00;3.20;;;27.10;96.80;;;;;;4994904;28;21041;-80
2023/07/11 07:28:20;;;;;;;7.13;4.77;;;27.10;96.40;;;;;;4974463;28;20473;-75
2023/07/11 07:30:48;;;;;;;5.07;3.90;;;27.20;97.00;;;;;;5011382;28;20551;-82
2023/07/11 07:33:16;;;;;;;4.37;2.60;;;27.30;97.10;;;;;;5014141;28;20472;-76
2023/07/11 07:35:44;;;;;;;4.20;2.77;;;27.30;97.00;;;;;;5014396;28;20469;-76
2023/07/11 07:38:12;;;;;;;5.00;3.07;;;27.50;96.80;;;;;;5015005;28;20476;-76
2023/07/11 07:40:40;;;;;;;3.07;2.80;;;27.60;96.30;;;;;;5016665;28;20496;-81
2023/07/11 07:43:11;;;;;;;3.73;2.83;;;27.80;96.20;;;;;;5016403;28;20822;-81
2023/07/11 07:45:38;;;;;;;4.60;2.70;;;28.00;96.20;;;;;;5016415;28;20795;-81
2023/07/11 07:48:06;;;;;;;4.27;3.83;;;28.10;95.60;;;;;;5015789;28;20968;-76
2023/07/11 07:50:33;;;;;;;6.00;3.97;;;28.10;95.70;;;;;;5014257;28;20541;-76
2023/07/11 07:53:00;;;;;;;5.10;3.60;;;28.20;95.90;;;;;;5015178;28;20977;-81
2023/07/11 07:55:27;;;;;;;4.60;3.20;;;28.40;95.60;;;;;;5014218;28;20858;-81
2023/07/11 07:57:56;;;;;;;5.13;2.93;;;28.50;94.10;;;;;;5014544;28;20505;-82
2023/07/11 08:00:26;;;;;;;2.93;2.70;;;28.60;93.90;;;;;;5013844;28;20465;-81
2023/07/11 08:02:52;;;;;;;3.53;3.23;;;28.70;94.00;;;;;;5014669;28;20485;-81
2023/07/11 08:05:20;;;;;;;5.77;3.23;;;28.70;93.40;;;;;;4999115;28;20626;-76
2023/07/11 08:07:48;;;;;;;4.03;3.17;;;28.80;92.90;;;;;;4994920;28;20935;-77
2023/07/11 08:10:16;;;;;;;3.60;2.93;;;28.90;92.50;;;;;;4994549;28;20466;-81
2023/07/11 08:12:43;;;;;;;3.20;2.50;;;28.90;91.20;;;;;;4993648;28;20958;-77
2023/07/11 08:15:11;;;;;;;3.27;2.70;;;29.00;91.10;;;;;;4993796;28;20581;-76
2023/07/11 08:17:42;;;;;;;6.53;3.30;;;29.00;90.40;;;;;;4993675;28;20520;-81
2023/07/11 08:20:10;;;;;;;4.23;2.83;;;29.10;90.40;;;;;;4984304;28;20482;-76
2023/07/11 08:22:37;;;;;;;3.60;2.00;;;29.10;89.50;;;;;;4994435;28;20497;-81
2023/07/11 08:25:05;;;;;;;7.23;3.03;;;29.10;83.80;;;;;;4993887;28;20489;-82
2023/07/11 08:27:32;;;;;;;5.70;2.73;;;29.20;84.50;;;;;;4993841;28;20867;-77
2023/07/11 08:30:02;;;;;;;4.97;2.60;;;29.40;83.70;;;;;;5005711;28;20469;-82
2023/07/11 08:32:30;;;;;;;8.70;2.70;;;29.50;85.30;;;;;;5014775;28;20555;-81
2023/07/11 08:34:58;;;;;;;4.30;2.60;;;29.60;84.00;;;;;;5017882;28;20465;-83
2023/07/11 08:37:27;;;;;;;5.10;2.67;;;29.70;80.40;;;;;;5015998;28;20508;-83
2023/07/11 08:39:54;;;;;;;2.13;1.90;;;29.80;80.00;;;;;;5015052;28;20874;-81
2023/07/11 08:42:30;;;;;;;4.97;2.30;;;29.70;78.60;;;;;;5014089;28;20473;-76
2023/07/11 08:45:04;;;;;;;2.80;2.27;;;29.80;78.80;;;;;;5018020;28;20472;-82
2023/07/11 08:47:38;;;;;;;3.60;2.33;;;29.80;79.20;;;;;;5017804;28;20500;-80
2023/07/11 08:50:12;;;;;;;4.47;2.40;;;29.80;78.60;;;;;;5018038;28;21338;-75
2023/07/11 08:52:40;;;;;;;3.20;2.47;;;29.70;77.50;;;;;;5018393;28;20472;-82
2023/07/11 08:55:13;;;;;;;3.93;3.50;;;29.50;77.00;;;;;;5017370;28;20480;-76
2023/07/11 08:57:45;;;;;;;2.63;2.40;;;29.50;76.70;;;;;;5018246;28;20465;-76
2023/07/11 09:00:16;;;;;;;4.17;3.10;;;29.40;75.40;;;;;;5017718;28;20507;-76
2023/07/11 09:02:54;;;;;;;4.27;3.43;;;29.30;75.70;;;;;;5017376;28;20469;-77
2023/07/11 09:05:36;;;;;;;2.57;2.37;;;29.30;76.70;;;;;;5002893;28;20549;-82
2023/07/11 09:08:03;;;;;;;2.93;2.40;;;29.30;75.80;;;;;;4997467;28;20572;-77
2023/07/11 09:10:41;;;;;;;3.17;2.30;;;29.20;76.20;;;;;;4997611;28;20477;-82
2023/07/11 09:13:34;;;;;;;4.07;2.93;;;29.20;76.60;;;;;;4997790;28;20474;-78
2023/07/11 09:16:07;;;;;;;3.63;2.37;;;29.30;73.50;;;;;;4997110;28;20470;-77
2023/07/11 09:18:44;;;;;;;4.07;2.33;;;29.20;74.00;;;;;;4998259;28;20549;-76
2023/07/11 09:21:16;;;;;;;5.77;3.80;;;29.20;73.00;;;;;;4997382;28;20478;-76
2023/07/11 09:23:53;;;;;;;7.03;3.30;;;29.20;75.00;;;;;;4999150;28;20496;-81
2023/07/11 09:26:27;;;;;;;10.50;3.20;;;29.20;76.30;;;;;;5001294;28;20480;-79
2023/07/11 09:29:01;;;;;;;4.23;2.67;;;29.20;74.40;;;;;;5001896;28;20465;-79
2023/07/11 09:31:39;;;;;;;3.30;2.53;;;29.20;73.30;;;;;;5006836;28;20485;-76
2023/07/11 09:34:17;;;;;;;4.80;3.50;;;29.20;73.00;;;;;;4997009;28;20484;-77
2023/07/11 09:36:48;;;;;;;3.37;2.30;;;29.10;74.10;;;;;;4980818;28;20549;-77
2023/07/11 09:39:24;;;;;;;3.07;2.00;;;29.10;72.60;;;;;;4999993;28;20474;-77
2023/07/11 09:41:57;;;;;;;3.77;3.03;;;29.10;72.40;;;;;;5001354;28;20528;-81
2023/07/11 09:44:24;;;;;;;4.90;3.77;;;29.20;73.40;;;;;;4989271;28;21066;-76
2023/07/11 09:46:55;;;;;;;4.00;2.90;;;29.20;74.10;;;;;;4995938;28;20516;-76
2023/07/11 09:49:28;;;;;;;6.13;3.20;;;29.10;73.20;;;;;;4996677;28;20541;-78
2023/07/11 09:52:00;;;;;;;2.97;2.77;;;29.20;72.50;;;;;;4998209;28;20545;-82
2023/07/11 09:54:29;;;;;;;3.37;3.10;;;29.20;72.20;;;;;;5000108;28;20478;-82
2023/07/11 09:56:58;;;;;;;4.00;3.07;;;29.10;73.70;;;;;;5003114;28;20468;-82
2023/07/11 09:59:25;;;;;;;3.50;2.90;;;29.10;73.50;;;;;;4991211;28;20500;-76
2023/07/11 10:01:59;;;;;;;3.97;2.83;;;29.10;73.50;;;;;;5000818;28;20470;-83
2023/07/11 10:04:27;;;;;;;4.30;2.13;;;29.20;73.40;;;;;;4998037;28;20817;-83
2023/07/11 10:06:57;;;;;;;3.10;2.40;;;29.20;72.90;;;;;;4998499;28;20564;-77
2023/07/11 10:09:27;;;;;;;3.80;3.03;;;29.10;72.30;;;;;;4997905;28;20547;-78
2023/07/11 10:11:57;;;;;;;6.20;2.63;;;29.10;72.80;;;;;;4999720;28;20528;-82
2023/07/11 10:14:28;;;;;;;6.77;2.07;;;29.10;71.40;;;;;;4999448;28;20501;-81
2023/07/11 10:16:57;;;;;;;4.47;2.70;;;29.10;70.60;;;;;;5004433;28;20540;-77
2023/07/11 10:19:26;;;;;;;3.10;2.60;;;29.10;71.10;;;;;;4998749;28;20505;-76
2023/07/11 10:21:58;;;;;;;3.30;2.80;;;29.20;73.20;;;;;;5001477;28;20501;-81
2023/07/11 10:24:34;;;;;;;4.73;2.97;;;29.20;73.60;;;;;;4998847;28;20505;-82
2023/07/11 10:27:06;;;;;;;2.83;2.53;;;29.20;74.30;;;;;;4998441;28;20474;-77
2023/07/11 10:29:45;;;;;;;2.90;2.60;;;29.30;72.60;;;;;;5001450;28;20545;-76
2023/07/11 10:32:17;;;;;;;3.10;2.80;;;29.30;73.00;;;;;;5002048;28;20473;-81
2023/07/11 10:34:50;;;;;;;2.93;2.67;;;29.30;73.10;;;;;;4998143;28;20920;-82
2023/07/11 10:37:25;;;;;;;3.70;3.40;;;29.30;73.60;;;;;;5001075;28;20530;-76
2023/07/11 10:39:57;;;;;;;2.83;2.33;;;29.40;73.40;;;;;;5000836;28;20464;-82
2023/07/11 10:42:31;;;;;;;2.87;2.10;;;29.40;72.30;;;;;;5002816;28;20493;-76
2023/07/11 10:45:10;;;;;;;7.00;2.90;;;29.40;71.50;;;;;;5003497;28;20497;-80
2023/07/11 10:47:42;;;;;;;2.57;2.37;;;29.30;71.00;;;;;;5004511;28;20470;-77
2023/07/11 10:50:23;;;;;;;3.30;2.50;;;29.40;71.70;;;;;;5006770;28;20462;-77
2023/07/11 10:52:54;;;;;;;3.27;2.43;;;29.40;71.90;;;;;;5007523;28;20485;-77
2023/07/11 10:55:29;;;;;;;2.83;2.53;;;29.30;70.40;;;;;;5011272;28;20466;-82
2023/07/11 10:57:57;;;;;;;2.70;2.33;;;29.30;71.50;;;;;;5010023;28;20476;-81
2023/07/11 11:00:38;;;;;;;3.37;3.07;;;29.30;70.40;;;;;;5011181;28;20497;-77
2023/07/11 11:03:14;;;;;;;3.20;2.90;;;29.40;71.40;;;;;;5010801;28;20537;-82
2023/07/11 11:05:52;;;;;;;2.93;2.40;;;29.30;69.50;;;;;;5009630;28;20517;-79
2023/07/11 11:08:27;;;;;;;2.00;1.80;;;29.30;69.70;;;;;;5011218;28;20453;-77
2023/07/11 11:11:10;;;;;;;4.93;2.80;;;29.30;70.10;;;;;;5010092;28;20476;-76
2023/07/11 11:13:43;;;;;;;3.63;2.53;;;29.20;70.30;;;;;;5008667;28;20473;-76
2023/07/11 11:16:22;;;;;;;4.20;2.63;;;29.20;71.10;;;;;;5013117;28;20468;-76
2023/07/11 11:19:13;;;;;;;4.30;2.43;;;29.20;70.90;;;;;;5013516;28;20492;-77
2023/07/11 11:21:48;;;;;;;5.33;3.10;;;29.30;70.30;;;;;;5012013;28;20474;-76
2023/07/11 11:24:32;;;;;;;6.07;3.07;;;29.30;69.50;;;;;;5012658;28;20552;-82
2023/07/11 11:27:07;;;;;;;3.70;2.93;;;29.20;69.20;;;;;;5011212;28;20501;-81
2023/07/11 11:29:52;;;;;;;3.67;2.73;;;29.30;69.50;;;;;;5001116;28;20541;-81
2023/07/11 11:32:26;;;;;;;6.30;2.97;;;29.30;69.30;;;;;;5010298;28;20482;-76
2023/07/11 11:35:15;;;;;;;3.70;3.40;;;29.30;69.70;;;;;;5009962;28;20472;-80
2023/07/11 11:37:57;;;;;;;2.50;2.30;;;29.40;70.80;;;;;;5011311;28;20473;-77
2023/07/11 11:40:36;;;;;;;2.70;2.50;;;29.40;69.90;;;;;;5008577;28;20466;-77
2023/07/11 11:43:10;;;;;;;3.03;2.83;;;29.40;69.70;;;;;;5005780;28;20468;-76
2023/07/11 11:45:39;;;;;;;3.10;2.80;;;29.50;69.50;;;;;;5005626;28;20472;-76
2023/07/11 11:48:10;;;;;;;2.30;2.20;;;29.50;70.00;;;;;;5004708;28;20955;-81
2023/07/11 11:50:40;;;;;;;3.40;2.70;;;29.50;70.20;;;;;;5003747;28;20484;-77
2023/07/11 11:53:23;;;;;;;3.80;3.50;;;29.60;70.30;;;;;;5002617;28;20462;-76
2023/07/11 11:55:57;;;;;;;3.80;3.50;;;29.60;70.40;;;;;;5008383;28;20493;-80
2023/07/11 11:58:29;;;;;;;3.90;3.47;;;29.70;68.40;;;;;;5007408;28;20472;-82
2023/07/11 12:00:58;;;;;;;3.30;3.00;;;29.50;66.10;;;;;;5002296;28;20486;-82
2023/07/11 12:03:30;;;;;;;3.40;2.90;;;29.50;66.90;;;;;;5013358;28;20457;-82
2023/07/11 12:05:59;;;;;;;4.53;4.23;;;29.50;67.60;;;;;;5012986;28;20464;-81
2023/07/11 12:08:33;;;;;;;4.03;3.73;;;29.50;68.10;;;;;;5011756;28;20465;-81
2023/07/11 12:11:18;;;;;;;9.20;6.97;;;29.60;68.60;;;;;;5006716;28;20470;-80
2023/07/11 12:14:24;;;;;;;4.40;4.00;;;29.60;68.50;;;;;;5001571;28;20508;-81
2023/07/11 12:16:53;;;;;;;3.27;3.07;;;29.60;68.00;;;;;;5006519;28;20462;-82
2023/07/11 12:19:30;;;;;;;4.53;4.10;;;29.70;67.80;;;;;;5009663;28;20473;-76
2023/07/11 12:22:04;;;;;;;3.43;3.23;;;29.70;69.50;;;;;;4996632;28;20504;-77
2023/07/11 12:24:46;;;;;;;3.90;3.60;;;29.70;70.20;;;;;;5004684;28;20500;-76
2023/07/11 12:28:00;;;;;;;3.87;3.57;;;29.80;70.60;;;;;;5000763;28;20469;-77
2023/07/11 12:30:42;;;;;;;3.60;3.30;;;29.80;69.00;;;;;;4999456;28;20504;-77
2023/07/11 12:33:40;;;;;;;4.00;2.60;;;29.80;70.00;;;;;;4997524;28;20468;-81
2023/07/11 12:36:54;;;;;;;2.67;2.47;;;29.80;69.30;;;;;;4997038;28;20466;-76
2023/07/11 12:39:36;;;;;;;3.13;2.87;;;29.80;69.50;;;;;;5006828;28;20462;-83
2023/07/11 12:42:10;;;;;;;7.13;5.70;;;29.80;70.40;;;;;;4996061;28;20500;-76
2023/07/11 12:44:39;;;;;;;3.20;2.90;;;29.80;67.10;;;;;;4994904;28;20583;-82
2023/07/11 12:47:14;;;;;;;3.57;3.27;;;29.70;67.10;;;;;;4994871;28;21045;-82
2023/07/11 12:49:44;;;;;;;8.40;3.20;;;29.70;67.40;;;;;;4995652;28;20466;-81
2023/07/11 12:52:14;;;;;;;3.43;3.13;;;29.60;66.70;;;;;;4994085;28;20501;-83
2023/07/11 12:54:42;;;;;;;5.00;3.13;;;29.70;67.30;;;;;;4991797;28;20968;-76
2023/07/11 12:57:14;;;;;;;3.47;2.77;;;29.70;68.10;;;;;;4993795;28;20473;-76
2023/07/11 12:59:41;;;;;;;3.00;2.80;;;29.70;65.40;;;;;;4995701;28;20458;-81
2023/07/11 13:02:13;;;;;;;5.07;4.67;;;29.80;65.90;;;;;;4995311;28;20474;-76
2023/07/11 13:04:43;;;;;;;4.67;3.80;;;29.80;67.30;;;;;;4994934;28;20467;-76
2023/07/11 13:07:14;;;;;;;4.70;3.30;;;29.80;66.70;;;;;;4994055;28;20474;-76